Time,TemperatureF,DewpointF,PressureIn,WindDirection,WindDirectionDegrees,WindSpeedMPH,WindSpeedGustMPH,Humidity,HourlyPrecipIn,Conditions,Clouds,dailyrainin,SoftwareType,DateUTC
2013-09-23 00:10:00,60.1,53.0,29.81,SSE,156,14.0,16.0,77,0.00,,,0.00,weatherlink.com 1.10,2013-09-23 05:10:00,
2013-09-23 00:25:00,60.0,53.0,29.81,SSE,168,10.0,20.0,77,0.00,,,0.00,weatherlink.com 1.10,2013-09-23 05:25:00,
2013-09-23 00:40:00,59.6,53.0,29.81,SE,143,8.0,16.0,78,0.00,,,0.00,weatherlink.com 1.10,2013-09-23 05:40:00,
2013-09-23 00:55:00,59.1,53.0,29.81,SE,146,11.0,14.0,80,0.00,,,0.00,weatherlink.com 1.10,2013-09-23 05:55:00,
2013-09-23 01:10:00,58.8,53.0,29.81,SE,136,12.0,16.0,80,0.00,,,0.00,weatherlink.com 1.10,2013-09-23 06:10:00,
2013-09-23 01:25:00,58.1,53.0,29.81,SSE,149,11.0,16.0,82,0.00,,,0.00,weatherlink.com 1.10,2013-09-23 06:25:00,
2013-09-23 01:40:00,57.7,53.0,29.81,SE,145,11.0,15.0,83,0.00,,,0.00,weatherlink.com 1.10,2013-09-23 06:40:00,
2013-09-23 01:55:00,57.5,52.0,29.81,South,169,8.0,14.0,83,0.00,,,0.00,weatherlink.com 1.10,2013-09-23 06:55:00,
2013-09-23 02:10:00,57.1,52.0,29.81,SE,129,10.0,17.0,84,0.00,,,0.00,weatherlink.com 1.10,2013-09-23 07:10:00,
2013-09-23 02:25:00,56.8,52.0,29.81,SE,136,11.0,14.0,84,0.00,,,0.00,weatherlink.com 1.10,2013-09-23 07:25:00,
2013-09-23 02:40:00,56.4,52.0,29.80,SE,133,7.0,14.0,84,0.00,,,0.00,weatherlink.com 1.10,2013-09-23 07:40:00,
2013-09-23 02:55:00,56.3,51.0,29.81,SE,134,9.0,13.0,83,0.00,,,0.00,weatherlink.com 1.10,2013-09-23 07:55:00,
2013-09-23 03:10:00,55.6,51.0,29.80,ESE,122,8.0,13.0,84,0.00,,,0.00,weatherlink.com 1.10,2013-09-23 08:10:00,
2013-09-23 03:25:00,55.0,50.0,29.80,SSE,156,7.0,14.0,84,0.00,,,0.00,weatherlink.com 1.10,2013-09-23 08:25:00,
2013-09-23 03:40:00,54.8,50.0,29.80,SE,124,9.0,15.0,84,0.00,,,0.00,weatherlink.com 1.10,2013-09-23 08:40:00,
2013-09-23 03:55:00,54.6,50.0,29.80,ESE,122,9.0,14.0,84,0.00,,,0.00,weatherlink.com 1.10,2013-09-23 08:55:00,
2013-09-23 04:10:00,54.3,50.0,29.79,ESE,122,7.0,14.0,84,0.00,,,0.00,weatherlink.com 1.10,2013-09-23 09:10:00,
2013-09-23 04:25:00,54.0,50.0,29.80,South,174,9.0,15.0,85,0.00,,,0.00,weatherlink.com 1.10,2013-09-23 09:25:00,
2013-09-23 04:41:00,53.7,49.0,29.79,ENE,75,10.0,14.0,85,0.00,,,0.00,weatherlink.com 1.10,2013-09-23 09:41:00,
2013-09-23 04:56:00,53.4,49.0,29.79,SE,129,13.0,17.0,85,0.00,,,0.00,weatherlink.com 1.10,2013-09-23 09:56:00,
2013-09-23 05:11:00,53.2,49.0,29.79,SE,133,7.0,16.0,85,0.00,,,0.00,weatherlink.com 1.10,2013-09-23 10:11:00,
2013-09-23 05:26:00,53.0,49.0,29.79,SE,132,8.0,16.0,85,0.00,,,0.00,weatherlink.com 1.10,2013-09-23 10:26:00,
2013-09-23 05:41:00,52.8,48.0,29.79,ESE,111,9.0,19.0,85,0.00,,,0.00,weatherlink.com 1.10,2013-09-23 10:41:00,
2013-09-23 05:56:00,52.5,49.0,29.79,East,96,8.0,17.0,86,0.00,,,0.00,weatherlink.com 1.10,2013-09-23 10:56:00,
2013-09-23 06:11:00,52.2,48.0,29.80,SE,127,9.0,13.0,86,0.00,,,0.00,weatherlink.com 1.10,2013-09-23 11:11:00,
2013-09-23 06:26:00,51.7,48.0,29.80,SE,132,8.0,13.0,87,0.00,,,0.00,weatherlink.com 1.10,2013-09-23 11:26:00,
2013-09-23 06:41:00,51.6,48.0,29.80,SE,134,8.0,17.0,87,0.00,,,0.00,weatherlink.com 1.10,2013-09-23 11:41:00,
2013-09-23 06:56:00,51.3,48.0,29.81,SE,136,10.0,16.0,88,0.00,,,0.00,weatherlink.com 1.10,2013-09-23 11:56:00,
2013-09-23 07:11:00,51.2,48.0,29.81,SE,127,9.0,16.0,88,0.00,,,0.00,weatherlink.com 1.10,2013-09-23 12:11:00,
2013-09-23 07:26:00,50.9,48.0,29.81,ESE,108,13.0,16.0,88,0.00,,,0.00,weatherlink.com 1.10,2013-09-23 12:26:00,
2013-09-23 07:41:00,50.8,48.0,29.82,SSE,166,8.0,19.0,89,0.00,,,0.00,weatherlink.com 1.10,2013-09-23 12:41:00,
2013-09-23 07:56:00,51.2,48.0,29.82,SSE,162,13.0,20.0,88,0.00,,,0.00,weatherlink.com 1.10,2013-09-23 12:56:00,
2013-09-23 08:11:00,51.7,48.0,29.82,SE,140,8.0,18.0,87,0.00,,,0.00,weatherlink.com 1.10,2013-09-23 13:11:00,
2013-09-23 08:26:00,52.6,49.0,29.82,SSE,148,13.0,15.0,86,0.00,,,0.00,weatherlink.com 1.10,2013-09-23 13:26:00,
2013-09-23 08:41:00,53.4,49.0,29.82,SSE,155,11.0,16.0,85,0.00,,,0.00,weatherlink.com 1.10,2013-09-23 13:41:00,
2013-09-23 08:56:00,54.1,49.0,29.82,SSE,152,9.0,16.0,84,0.00,,,0.00,weatherlink.com 1.10,2013-09-23 13:56:00,
2013-09-23 09:11:00,55.7,50.0,29.82,SE,146,13.0,18.0,82,0.00,,,0.00,weatherlink.com 1.10,2013-09-23 14:11:00,
2013-09-23 09:26:00,57.6,51.0,29.82,SSE,165,10.0,26.0,79,0.00,,,0.00,weatherlink.com 1.10,2013-09-23 14:26:00,
2013-09-23 09:41:00,59.4,51.0,29.82,SE,125,10.0,22.0,74,0.00,,,0.00,weatherlink.com 1.10,2013-09-23 14:41:00,
2013-09-23 09:56:00,60.5,51.0,29.82,SE,143,14.0,20.0,72,0.00,,,0.00,weatherlink.com 1.10,2013-09-23 14:56:00,
2013-09-23 10:11:00,62.2,52.0,29.82,SE,143,15.0,23.0,69,0.00,,,0.00,weatherlink.com 1.10,2013-09-23 15:11:00,
2013-09-23 10:26:00,63.3,52.0,29.81,South,177,13.0,25.0,66,0.00,,,0.00,weatherlink.com 1.10,2013-09-23 15:26:00,
2013-09-23 10:41:00,64.9,52.0,29.82,South,184,12.0,30.0,64,0.00,,,0.00,weatherlink.com 1.10,2013-09-23 15:41:00,
2013-09-23 10:56:00,66.0,52.0,29.81,SSE,155,20.0,28.0,60,0.00,,,0.00,weatherlink.com 1.10,2013-09-23 15:56:00,
2013-09-23 11:11:00,66.4,51.0,29.81,SSE,167,18.0,26.0,59,0.00,,,0.00,weatherlink.com 1.10,2013-09-23 16:11:00,
2013-09-23 11:26:00,67.3,52.0,29.81,SE,131,16.0,27.0,58,0.00,,,0.00,weatherlink.com 1.10,2013-09-23 16:26:00,
2013-09-23 11:41:00,68.2,51.0,29.80,SSE,165,20.0,29.0,54,0.00,,,0.00,weatherlink.com 1.10,2013-09-23 16:41:00,
2013-09-23 11:56:00,68.9,51.0,29.80,SSE,151,18.0,31.0,54,0.00,,,0.00,weatherlink.com 1.10,2013-09-23 16:56:00,
2013-09-23 12:12:00,69.9,51.0,29.79,SE,146,16.0,30.0,51,0.00,,,0.00,weatherlink.com 1.10,2013-09-23 17:12:00,
2013-09-23 12:27:00,70.4,51.0,29.79,SSE,166,23.0,31.0,51,0.00,,,0.00,weatherlink.com 1.10,2013-09-23 17:27:00,
2013-09-23 12:42:00,71.2,50.0,29.79,SSE,152,21.0,35.0,48,0.00,,,0.00,weatherlink.com 1.10,2013-09-23 17:42:00,
2013-09-23 12:57:00,72.1,51.0,29.78,SE,134,13.0,26.0,48,0.00,,,0.00,weatherlink.com 1.10,2013-09-23 17:57:00,
2013-09-23 13:12:00,72.3,51.0,29.77,SE,141,16.0,29.0,47,0.00,,,0.00,weatherlink.com 1.10,2013-09-23 18:12:00,
2013-09-23 13:27:00,73.0,51.0,29.77,SE,145,14.0,26.0,47,0.00,,,0.00,weatherlink.com 1.10,2013-09-23 18:27:00,
2013-09-23 13:42:00,73.2,51.0,29.77,SSE,163,21.0,26.0,45,0.00,,,0.00,weatherlink.com 1.10,2013-09-23 18:42:00,
2013-09-23 13:57:00,73.5,51.0,29.76,SE,129,15.0,27.0,45,0.00,,,0.00,weatherlink.com 1.10,2013-09-23 18:57:00,
2013-09-23 14:12:00,73.8,50.0,29.75,SE,124,20.0,27.0,44,0.00,,,0.00,weatherlink.com 1.10,2013-09-23 19:12:00,
2013-09-23 14:28:00,73.9,51.0,29.75,SE,137,13.0,24.0,45,0.00,,,0.00,weatherlink.com 1.10,2013-09-23 19:28:00,
2013-09-23 14:42:00,74.1,50.0,29.74,East,101,13.0,30.0,43,0.00,,,0.00,weatherlink.com 1.10,2013-09-23 19:42:00,
2013-09-23 14:57:00,74.8,49.0,29.74,ESE,117,19.0,29.0,41,0.00,,,0.00,weatherlink.com 1.10,2013-09-23 19:57:00,
2013-09-23 15:12:00,75.1,50.0,29.74,SE,124,15.0,26.0,41,0.00,,,0.00,weatherlink.com 1.10,2013-09-23 20:12:00,
2013-09-23 15:27:00,75.3,50.0,29.73,ESE,108,17.0,31.0,41,0.00,,,0.00,weatherlink.com 1.10,2013-09-23 20:27:00,
2013-09-23 15:42:00,75.3,50.0,29.74,SE,135,20.0,30.0,41,0.00,,,0.00,weatherlink.com 1.10,2013-09-23 20:42:00,
2013-09-23 15:57:00,75.8,50.0,29.74,SSE,155,19.0,30.0,40,0.00,,,0.00,weatherlink.com 1.10,2013-09-23 20:57:00,
2013-09-23 16:12:00,75.4,50.0,29.73,ESE,122,14.0,29.0,41,0.00,,,0.00,weatherlink.com 1.10,2013-09-23 21:12:00,
2013-09-23 16:27:00,75.8,50.0,29.74,ESE,106,14.0,29.0,40,0.00,,,0.00,weatherlink.com 1.10,2013-09-23 21:27:00,
2013-09-23 16:42:00,75.6,50.0,29.74,East,90,15.0,28.0,41,0.00,,,0.00,weatherlink.com 1.10,2013-09-23 21:42:00,
2013-09-23 16:57:00,75.5,50.0,29.74,SSE,148,19.0,33.0,41,0.00,,,0.00,weatherlink.com 1.10,2013-09-23 21:57:00,
2013-09-23 17:12:00,75.5,49.0,29.74,SE,137,10.0,30.0,40,0.00,,,0.00,weatherlink.com 1.10,2013-09-23 22:12:00,
2013-09-23 17:27:00,75.1,49.0,29.74,SE,124,15.0,25.0,40,0.00,,,0.00,weatherlink.com 1.10,2013-09-23 22:27:00,
2013-09-23 17:42:00,74.8,49.0,29.74,SE,141,16.0,30.0,40,0.00,,,0.00,weatherlink.com 1.10,2013-09-23 22:42:00,
2013-09-23 17:57:00,74.3,49.0,29.74,SE,130,14.0,29.0,41,0.00,,,0.00,weatherlink.com 1.10,2013-09-23 22:57:00,
2013-09-23 18:12:00,73.9,50.0,29.75,SE,139,9.0,21.0,43,0.00,,,0.00,weatherlink.com 1.10,2013-09-23 23:12:00,
2013-09-23 18:27:00,73.2,50.0,29.76,SE,145,13.0,17.0,44,0.00,,,0.00,weatherlink.com 1.10,2013-09-23 23:27:00,
2013-09-23 18:42:00,72.4,49.0,29.77,East,101,9.0,21.0,44,0.00,,,0.00,weatherlink.com 1.10,2013-09-23 23:42:00,
2013-09-23 18:57:00,71.1,49.0,29.77,SSE,149,6.0,14.0,45,0.00,,,0.00,weatherlink.com 1.10,2013-09-23 23:57:00,
2013-09-23 19:12:00,69.7,49.0,29.77,ESE,120,5.0,11.0,48,0.00,,,0.00,weatherlink.com 1.10,2013-09-24 00:12:00,
2013-09-23 19:27:00,68.5,49.0,29.78,SSE,148,6.0,11.0,50,0.00,,,0.00,weatherlink.com 1.10,2013-09-24 00:27:00,
2013-09-23 19:42:00,67.5,49.0,29.78,SE,129,6.0,11.0,51,0.00,,,0.00,weatherlink.com 1.10,2013-09-24 00:42:00,
2013-09-23 19:57:00,66.7,48.0,29.78,ESE,123,6.0,12.0,52,0.00,,,0.00,weatherlink.com 1.10,2013-09-24 00:57:00,
2013-09-23 20:12:00,65.8,49.0,29.79,ESE,113,7.0,10.0,54,0.00,,,0.00,weatherlink.com 1.10,2013-09-24 01:12:00,
2013-09-23 20:27:00,64.7,48.0,29.79,SSW,207,2.0,6.0,56,0.00,,,0.00,weatherlink.com 1.10,2013-09-24 01:27:00,
2013-09-23 20:42:00,63.9,49.0,29.79,SE,125,4.0,10.0,59,0.00,,,0.00,weatherlink.com 1.10,2013-09-24 01:42:00,
2013-09-23 20:57:00,62.8,49.0,29.79,SE,128,3.0,6.0,61,0.00,,,0.00,weatherlink.com 1.10,2013-09-24 01:57:00,
2013-09-23 21:12:00,62.3,49.0,29.80,ESE,114,6.0,11.0,63,0.00,,,0.00,weatherlink.com 1.10,2013-09-24 02:12:00,
2013-09-23 21:27:00,61.9,49.0,29.80,SSE,153,7.0,10.0,64,0.00,,,0.00,weatherlink.com 1.10,2013-09-24 02:27:00,
2013-09-23 21:42:00,61.3,50.0,29.80,SSE,162,5.0,9.0,66,0.00,,,0.00,weatherlink.com 1.10,2013-09-24 02:42:00,
2013-09-23 21:57:00,61.3,50.0,29.80,SE,129,8.0,15.0,66,0.00,,,0.00,weatherlink.com 1.10,2013-09-24 02:57:00,
2013-09-23 22:12:00,61.4,49.0,29.81,SE,133,5.0,10.0,65,0.00,,,0.00,weatherlink.com 1.10,2013-09-24 03:12:00,
2013-09-23 22:27:00,60.9,49.0,29.81,SE,143,6.0,14.0,66,0.00,,,0.00,weatherlink.com 1.10,2013-09-24 03:27:00,
2013-09-23 22:42:00,60.2,49.0,29.81,SE,142,5.0,9.0,67,0.00,,,0.00,weatherlink.com 1.10,2013-09-24 03:42:00,
2013-09-23 22:57:00,59.7,49.0,29.82,SW,219,5.0,11.0,68,0.00,,,0.00,weatherlink.com 1.10,2013-09-24 03:57:00,
2013-09-23 23:12:00,59.5,49.0,29.82,SE,146,7.0,11.0,69,0.00,,,0.00,weatherlink.com 1.10,2013-09-24 04:12:00,
2013-09-23 23:27:00,59.4,49.0,29.82,SE,127,6.0,13.0,69,0.00,,,0.00,weatherlink.com 1.10,2013-09-24 04:27:00,
2013-09-23 23:42:00,59.1,49.0,29.82,ESE,105,10.0,13.0,70,0.00,,,0.00,weatherlink.com 1.10,2013-09-24 04:42:00,
2013-09-23 23:57:00,59.1,49.0,29.82,SE,133,7.0,13.0,70,0.00,,,0.00,weatherlink.com 1.10,2013-09-24 04:57:00,